createdAt,value
2019-05-07T00:00:48.530Z,60.90
2019-05-07T00:11:43.504Z,61.00
2019-05-07T00:17:05.203Z,61.10
2019-05-07T00:22:24.828Z,61.20
2019-05-07T00:27:29.357Z,61.40
2019-05-07T00:32:37.801Z,61.40
2019-05-07T00:37:44.345Z,61.50
2019-05-07T00:43:05.552Z,61.70
2019-05-07T00:48:09.240Z,61.70
2019-05-07T00:53:32.863Z,61.70
2019-05-07T00:58:34.410Z,61.80
2019-05-07T01:03:36.784Z,61.80
2019-05-07T01:09:03.008Z,61.90
2019-05-07T01:14:04.389Z,61.90
2019-05-07T01:19:05.763Z,62.00
2019-05-07T01:24:12.247Z,62.10
2019-05-07T01:29:14.547Z,62.10
2019-05-07T01:34:59.705Z,62.20
2019-05-07T01:40:05.291Z,62.20
2019-05-07T01:45:12.915Z,62.30
2019-05-07T01:50:17.571Z,62.40
2019-05-07T01:55:22.559Z,62.40
2019-05-07T02:00:27.265Z,62.60
2019-05-07T02:05:48.407Z,62.80
2019-05-07T02:10:57.832Z,62.80
2019-05-07T02:16:05.126Z,63.00
2019-05-07T02:21:09.666Z,62.90
2019-05-07T02:26:14.217Z,63.00
2019-05-07T02:31:27.658Z,63.00
2019-05-07T02:36:34.073Z,63.00
2019-05-07T02:41:57.184Z,63.00
2019-05-07T02:47:15.357Z,63.10
2019-05-07T02:52:24.896Z,63.20
2019-05-07T02:57:28.074Z,63.20
2019-05-07T03:02:35.704Z,63.30
2019-05-07T03:07:43.454Z,63.40
2019-05-07T03:12:53.684Z,63.40
2019-05-07T03:17:57.390Z,63.30
2019-05-07T03:23:03.264Z,63.20
2019-05-07T03:28:05.854Z,63.20
2019-05-07T03:33:18.347Z,63.00
2019-05-07T03:38:22.643Z,63.10
2019-05-07T03:43:26.432Z,63.30
2019-05-07T03:48:46.287Z,63.30
2019-05-07T03:53:48.824Z,63.50
2019-05-07T03:58:53.373Z,63.60
2019-05-07T04:03:56.680Z,63.70
2019-05-07T04:08:57.977Z,63.60
2019-05-07T04:14:14.383Z,63.80
2019-05-07T04:19:18.931Z,63.60
2019-05-07T04:24:33.022Z,63.50
2019-05-07T04:29:39.067Z,63.50
2019-05-07T04:35:03.918Z,63.40
2019-05-07T04:40:15.412Z,63.40
2019-05-07T04:45:43.019Z,63.50
2019-05-07T04:50:48.602Z,63.40
2019-05-07T04:55:49.969Z,63.30
2019-05-07T05:00:57.306Z,63.20
2019-05-07T05:06:04.415Z,63.10
2019-05-07T05:11:14.055Z,63.20
2019-05-07T05:16:22.841Z,63.00
2019-05-07T05:21:44.388Z,62.80
2019-05-07T05:27:02.556Z,62.50
2019-05-07T05:32:05.180Z,62.30
2019-05-07T05:37:13.508Z,62.00
2019-05-07T05:42:34.614Z,61.70
2019-05-07T05:47:42.828Z,61.60
2019-05-07T05:53:03.842Z,61.40
2019-05-07T05:58:13.220Z,61.30
2019-05-07T06:03:52.582Z,61.10
2019-05-07T06:09:28.752Z,60.90
2019-05-07T06:14:47.607Z,60.40
2019-05-07T06:20:33.857Z,60.20
2019-05-07T06:25:39.558Z,60.10
2019-05-07T06:30:41.813Z,59.90
2019-05-07T06:35:47.348Z,59.40
2019-05-07T06:40:59.189Z,59.50
2019-05-07T06:46:02.552Z,59.50
2019-05-07T06:51:07.090Z,59.50
2019-05-07T06:56:14.332Z,59.70
2019-05-07T07:01:35.120Z,59.80
2019-05-07T07:06:47.230Z,59.90
2019-05-07T07:11:58.348Z,60.00
2019-05-07T07:17:05.434Z,60.20
2019-05-07T07:22:31.954Z,60.40
2019-05-07T07:27:33.520Z,60.20
2019-05-07T07:32:36.833Z,60.10
2019-05-07T07:37:44.099Z,60.00
2019-05-07T07:42:55.379Z,59.90
2019-05-07T07:48:04.844Z,59.60
2019-05-07T07:53:08.168Z,59.30
2019-05-07T07:58:22.074Z,59.00
2019-05-07T08:03:32.954Z,58.50
2019-05-07T08:08:34.369Z,58.00
2019-05-07T08:13:39.220Z,57.90
2019-05-07T08:18:43.574Z,57.50
2019-05-07T08:23:45.250Z,57.50
2019-05-07T08:28:49.782Z,57.50
2019-05-07T08:34:08.435Z,57.10
2019-05-07T08:39:13.184Z,56.40
2019-05-07T08:44:22.210Z,55.60
2019-05-07T08:49:37.008Z,54.90
2019-05-07T08:54:36.145Z,55.70
2019-05-07T08:59:58.373Z,57.30
2019-05-07T09:04:54.746Z,57.60
2019-05-07T09:09:56.034Z,56.70
2019-05-07T09:15:06.590Z,56.30
2019-05-07T09:20:16.478Z,57.00
2019-05-07T09:25:28.986Z,57.30
2019-05-07T09:30:48.423Z,57.60
2019-05-07T09:36:25.486Z,57.50
2019-05-07T09:41:36.873Z,55.40
2019-05-07T09:46:43.333Z,52.80
2019-05-07T09:51:57.005Z,53.00
2019-05-07T09:57:24.593Z,52.80
2019-05-07T10:02:12.249Z,52.30
2019-05-07T10:07:17.096Z,52.90
2019-05-07T10:12:29.672Z,53.50
2019-05-07T10:17:36.491Z,54.40
2019-05-07T10:22:37.977Z,55.60
2019-05-07T10:27:57.370Z,56.00
2019-05-07T10:32:58.647Z,56.10
2019-05-07T10:38:03.061Z,56.20
2019-05-07T10:43:06.397Z,55.80
2019-05-07T10:48:12.846Z,55.20
2019-05-07T10:53:20.147Z,54.30
2019-05-07T10:58:35.995Z,54.60
2019-05-07T11:03:38.400Z,55.00
2019-05-07T11:08:54.906Z,55.40
2019-05-07T11:13:56.277Z,55.60
2019-05-07T11:19:05.944Z,55.40
2019-05-07T11:24:13.253Z,55.40
2019-05-07T11:29:17.841Z,55.00
2019-05-07T11:34:19.154Z,54.80
2019-05-07T11:39:23.711Z,54.80
2019-05-07T11:44:26.913Z,54.10
2019-05-07T11:49:33.466Z,53.50
2019-05-07T11:54:42.152Z,53.20
2019-05-07T11:59:46.795Z,52.60
2019-05-07T12:04:52.736Z,52.30
2019-05-07T12:10:19.070Z,51.40
2019-05-07T12:15:24.350Z,50.10
2019-05-07T12:20:27.883Z,49.70
2019-05-07T12:25:29.163Z,50.20
2019-05-07T12:30:51.761Z,50.80
2019-05-07T12:36:25.691Z,51.80
2019-05-07T12:41:49.701Z,52.20
2019-05-07T12:46:52.479Z,52.00
2019-05-07T12:51:58.877Z,50.80
2019-05-07T12:57:03.475Z,50.80
2019-05-07T13:02:21.657Z,51.00
2019-05-07T13:07:15.256Z,51.10
2019-05-07T13:12:16.543Z,50.90
2019-05-07T13:17:26.147Z,50.80
2019-05-07T13:22:28.531Z,49.80
2019-05-07T13:27:33.076Z,49.10
2019-05-07T13:32:45.049Z,49.10
2019-05-07T13:37:48.344Z,48.10
2019-05-07T13:42:54.880Z,48.70
2019-05-07T13:48:26.674Z,47.60
2019-05-07T13:54:21.803Z,46.90
2019-05-07T13:59:26.586Z,47.60
2019-05-07T14:04:52.814Z,47.80
2019-05-07T14:10:22.010Z,49.00
2019-05-07T14:15:26.611Z,48.80
2019-05-07T14:20:33.168Z,48.10
2019-05-07T14:25:43.359Z,48.10
2019-05-07T14:30:54.044Z,48.40
2019-05-07T14:36:11.945Z,48.30
2019-05-07T14:41:25.643Z,47.90
2019-05-07T14:46:45.605Z,48.50
2019-05-07T14:51:42.707Z,49.20
2019-05-07T14:56:46.229Z,48.20
2019-05-07T15:02:16.321Z,47.70
2019-05-07T15:07:17.837Z,47.60
2019-05-07T15:13:02.245Z,47.40
2019-05-07T15:18:42.356Z,46.90
2019-05-07T15:23:44.155Z,46.90
2019-05-07T15:28:52.170Z,46.50
2019-05-07T15:33:53.963Z,45.30
2019-05-07T15:38:57.446Z,45.80
2019-05-07T15:44:02.706Z,46.60
2019-05-07T15:49:04.489Z,47.10
2019-05-07T15:54:27.654Z,47.80
2019-05-07T15:59:29.531Z,47.90
2019-05-07T16:04:49.339Z,47.70
2019-05-07T16:09:53.985Z,47.70
2019-05-07T16:15:18.113Z,48.00
2019-05-07T16:20:22.840Z,48.30
2019-05-07T16:25:24.318Z,48.20
2019-05-07T16:30:27.826Z,48.00
2019-05-07T16:35:29.115Z,47.80
2019-05-07T16:40:33.715Z,48.20
2019-05-07T16:45:53.332Z,48.40
2019-05-07T16:50:54.655Z,48.60
2019-05-07T16:56:05.181Z,48.40
2019-05-07T17:01:18.712Z,48.30
2019-05-07T17:06:47.894Z,48.10
2019-05-07T17:11:56.108Z,48.10
2019-05-07T17:16:57.406Z,48.10
2019-05-07T17:22:02.750Z,47.90
2019-05-07T17:27:04.069Z,48.00
2019-05-07T17:32:23.006Z,47.80
2019-05-07T17:37:24.497Z,47.60
2019-05-07T17:43:21.765Z,47.70
2019-05-07T17:48:29.168Z,47.70
2019-05-07T17:53:33.817Z,47.90
2019-05-07T17:58:35.092Z,48.00
2019-05-07T18:03:44.323Z,48.30
2019-05-07T18:08:53.578Z,48.40
2019-05-07T18:13:57.367Z,48.50
2019-05-07T18:19:12.595Z,48.60
2019-05-07T18:24:22.403Z,48.70
2019-05-07T18:29:29.752Z,48.70
2019-05-07T18:34:37.187Z,48.80
2019-05-07T18:39:38.816Z,48.80
2019-05-07T18:44:41.731Z,49.00
2019-05-07T18:49:46.433Z,49.10
2019-05-07T18:54:48.789Z,49.20
2019-05-07T18:59:50.283Z,49.30
2019-05-07T19:05:04.518Z,49.50
2019-05-07T19:10:36.796Z,49.70
2019-05-07T19:15:38.138Z,49.90
2019-05-07T19:20:39.414Z,50.10
2019-05-07T19:25:55.128Z,50.30
2019-05-07T19:31:01.746Z,50.70
2019-05-07T19:36:03.419Z,50.90
2019-05-07T19:41:18.984Z,51.10
2019-05-07T19:46:22.912Z,51.20
2019-05-07T19:51:24.437Z,51.30
2019-05-07T19:57:02.626Z,51.50
2019-05-07T20:02:09.080Z,51.60
2019-05-07T20:07:33.291Z,51.60
2019-05-07T20:12:42.894Z,51.70
2019-05-07T20:17:44.675Z,51.70
2019-05-07T20:22:46.286Z,51.80
2019-05-07T20:27:48.822Z,51.80
2019-05-07T20:32:56.137Z,51.80
2019-05-07T20:37:58.536Z,51.90
2019-05-07T20:43:05.850Z,51.90
2019-05-07T20:48:07.329Z,52.00
2019-05-07T20:53:47.244Z,52.00
2019-05-07T20:58:52.111Z,52.00
2019-05-07T21:04:01.935Z,52.10
2019-05-07T21:09:06.594Z,52.20
2019-05-07T21:14:12.015Z,52.20
2019-05-07T21:19:23.396Z,52.30
2019-05-07T21:24:33.103Z,52.40
2019-05-07T21:29:34.327Z,52.50
2019-05-07T21:34:35.776Z,52.60
2019-05-07T21:39:43.098Z,52.50
2019-05-07T21:44:52.836Z,52.60
2019-05-07T21:49:59.992Z,52.80
2019-05-07T21:55:07.587Z,52.90
2019-05-07T22:00:26.139Z,53.20
2019-05-07T22:05:27.951Z,53.30
2019-05-07T22:10:38.647Z,53.30
2019-05-07T22:15:45.836Z,53.30
2019-05-07T22:20:52.213Z,53.50
2019-05-07T22:26:22.848Z,53.50
2019-05-07T22:31:22.133Z,53.50
2019-05-07T22:36:25.598Z,53.50
2019-05-07T22:41:28.913Z,53.50
2019-05-07T22:46:36.649Z,53.50
2019-05-07T22:51:41.070Z,53.40
2019-05-07T22:56:55.841Z,53.50
2019-05-07T23:02:03.777Z,53.60
2019-05-07T23:07:05.147Z,53.60
2019-05-07T23:12:09.808Z,53.70
2019-05-07T23:17:12.591Z,53.90
2019-05-07T23:22:17.253Z,54.00
2019-05-07T23:27:22.511Z,54.10
2019-05-07T23:32:30.015Z,54.20
2019-05-07T23:37:34.546Z,54.30
2019-05-07T23:42:52.929Z,54.40
2019-05-07T23:47:59.303Z,54.60
2019-05-07T23:53:02.271Z,54.70
2019-05-07T23:58:07.154Z,54.80
